Time;durP1;ratioP1;P1;durP2;ratioP2;P2;SDS_P1;SDS_P2;PMS_P1;PMS_P2;Temp;Humidity;BMP_temperature;BMP_pressure;BME280_temperature;BME280_humidity;BME280_pressure;Samples;Min_cycle;Max_cycle;Signal;HPM_P1;HPM_P2
2023/09/01 00:00:19;;;;;;;1.77;1.50;;;;;;;19.94;60.40;101133.44;4987742;28;20044;-56
2023/09/01 00:02:44;;;;;;;2.00;1.48;;;;;;;19.92;60.19;101134.41;4995154;28;20038;-56
2023/09/01 00:05:10;;;;;;;2.92;1.88;;;;;;;19.93;60.58;101119.03;4989937;28;20042;-56
2023/09/01 00:07:35;;;;;;;1.98;1.52;;;;;;;19.92;60.23;101115.50;4989258;28;20035;-56
2023/09/01 00:10:00;;;;;;;3.08;1.80;;;;;;;19.93;60.58;101113.63;4989239;28;20050;-56
2023/09/01 00:12:26;;;;;;;2.47;1.60;;;;;;;19.92;60.76;101104.69;4988906;28;20034;-56
2023/09/01 00:14:52;;;;;;;6.35;1.98;;;;;;;19.92;60.67;101110.09;4988571;28;20034;-56
2023/09/01 00:17:17;;;;;;;2.65;1.88;;;;;;;19.92;60.19;101106.53;4988088;28;20051;-56
2023/09/01 00:19:43;;;;;;;2.90;1.83;;;;;;;19.92;60.12;101104.69;4988609;28;20089;-56
2023/09/01 00:22:08;;;;;;;2.20;1.50;;;;;;;19.93;60.33;101113.63;4994458;28;20044;-56
2023/09/01 00:24:34;;;;;;;2.67;1.63;;;;;;;19.91;60.70;101119.22;4987376;28;20042;-56
2023/09/01 00:26:59;;;;;;;2.28;1.60;;;;;;;19.91;60.50;101111.09;4988535;28;20050;-56
2023/09/01 00:29:25;;;;;;;2.67;1.60;;;;;;;19.91;60.91;101110.22;4989044;28;20038;-56
2023/09/01 00:31:51;;;;;;;1.83;1.50;;;;;;;19.91;60.34;101104.81;4989645;28;20034;-56
2023/09/01 00:34:16;;;;;;;2.20;1.52;;;;;;;19.91;60.40;101104.81;4989103;28;20057;-56
2023/09/01 00:36:42;;;;;;;2.78;1.70;;;;;;;19.89;60.51;101104.97;4988489;28;20480;-56
2023/09/01 00:39:08;;;;;;;6.32;1.70;;;;;;;19.90;60.37;101108.56;4987760;28;20388;-56
2023/09/01 00:41:34;;;;;;;1.65;1.30;;;;;;;19.89;60.47;101102.28;4990601;28;20041;-56
2023/09/01 00:43:59;;;;;;;3.22;1.40;;;;;;;19.90;60.37;101093.19;4987449;28;20117;-56
2023/09/01 00:46:25;;;;;;;2.92;1.58;;;;;;;19.89;60.45;101094.16;4988497;28;20035;-56
2023/09/01 00:48:51;;;;;;;2.58;1.58;;;;;;;19.89;60.51;101086.06;4987803;28;20400;-56
2023/09/01 00:51:16;;;;;;;2.53;1.67;;;;;;;19.89;60.43;101083.34;4988266;28;20038;-56
2023/09/01 00:53:42;;;;;;;3.28;1.90;;;;;;;19.88;60.41;101084.38;4987624;28;20053;-56
2023/09/01 00:56:08;;;;;;;2.85;2.20;;;;;;;19.90;60.70;101081.53;4990475;28;20034;-56
2023/09/01 00:58:34;;;;;;;1.90;1.50;;;;;;;19.89;60.73;101094.16;4995385;28;20041;-56
2023/09/01 01:00:59;;;;;;;3.20;1.55;;;;;;;19.88;60.12;101092.47;4988130;28;20040;-56
2023/09/01 01:03:26;;;;;;;2.53;1.73;;;;;;;19.89;60.34;101087.91;4988866;28;20046;-56
2023/09/01 01:06:20;;;;;;;2.30;1.48;;;;;;;19.89;60.27;101083.34;4987708;28;20120;-56
2023/09/01 01:09:08;;;;;;;3.45;1.67;;;;;;;19.89;60.51;101093.31;4988074;28;20026;-56
2023/09/01 01:11:46;;;;;;;2.70;1.60;;;;;;;19.89;60.61;101104.13;4986111;28;20030;-56
2023/09/01 01:14:15;;;;;;;3.50;1.80;;;;;;;19.88;60.35;101102.44;4987586;28;20035;-56
2023/09/01 01:16:41;;;;;;;4.35;1.58;;;;;;;19.88;60.53;101107.84;4986274;28;20054;-56
2023/09/01 01:19:26;;;;;;;3.45;1.98;;;;;;;19.88;60.32;101110.56;4993706;28;20030;-56
2023/09/01 01:21:56;;;;;;;6.43;2.10;;;;;;;19.86;60.43;101108.00;4985754;28;20034;-56
2023/09/01 01:24:22;;;;;;;2.20;2.00;;;;;;;19.87;60.36;101106.16;4987360;28;20476;-56
2023/09/01 01:26:47;;;;;;;1.85;1.60;;;;;;;19.86;60.14;101108.00;4988628;28;20118;-56
2023/09/01 01:29:12;;;;;;;7.38;1.92;;;;;;;19.87;60.50;101100.75;4985708;28;20050;-56
2023/09/01 01:31:38;;;;;;;3.53;1.90;;;;;;;19.85;60.21;101095.47;4991107;28;20114;-56
2023/09/01 01:34:30;;;;;;;3.17;1.75;;;;;;;19.85;60.29;101092.78;4988785;28;20034;-56
2023/09/01 01:37:17;;;;;;;2.47;1.83;;;;;;;19.86;60.21;101088.25;4989616;28;20396;-56
2023/09/01 01:39:46;;;;;;;2.35;1.95;;;;;;;19.84;60.74;101099.19;4988457;28;20034;-56
2023/09/01 01:42:17;;;;;;;2.30;1.40;;;;;;;19.85;60.44;101109.00;4987191;28;20391;-56
2023/09/01 01:44:46;;;;;;;5.10;1.77;;;;;;;19.85;60.77;101110.84;4986389;28;20029;-56
2023/09/01 01:47:12;;;;;;;5.13;1.58;;;;;;;19.84;60.51;101109.16;4986512;28;20274;-56
2023/09/01 01:49:38;;;;;;;3.40;1.50;;;;;;;19.84;60.55;101107.31;4986229;28;20035;-56
2023/09/01 01:52:04;;;;;;;2.88;1.98;;;;;;;19.84;60.58;101107.31;4986367;28;20436;-56
2023/09/01 01:54:30;;;;;;;2.97;1.92;;;;;;;19.84;61.11;101118.13;4990011;28;20388;-56
2023/09/01 01:56:56;;;;;;;2.13;1.80;;;;;;;19.84;60.77;101112.72;4990470;28;20031;-56
2023/09/01 01:59:21;;;;;;;1.90;1.60;;;;;;;19.83;60.59;101108.28;4986453;28;20150;-56
2023/09/01 02:01:47;;;;;;;3.55;1.67;;;;;;;19.83;60.45;101100.19;4986997;28;20038;-56
2023/09/01 02:04:12;;;;;;;3.92;1.60;;;;;;;19.83;60.63;101105.59;4988253;28;20066;-56
2023/09/01 02:06:38;;;;;;;2.22;1.33;;;;;;;19.84;60.43;101098.38;4984797;28;20485;-56
2023/09/01 02:09:03;;;;;;;3.33;1.77;;;;;;;19.83;60.43;101094.78;5001902;28;20392;-56
2023/09/01 02:11:29;;;;;;;2.50;1.90;;;;;;;19.82;60.29;101095.81;4986777;28;20089;-56
2023/09/01 02:13:56;;;;;;;2.17;1.63;;;;;;;19.81;60.97;101094.09;4988820;28;20041;-56
2023/09/01 02:16:25;;;;;;;2.22;1.48;;;;;;;19.82;60.87;101090.41;4987286;28;20133;-56
2023/09/01 02:18:50;;;;;;;3.40;1.80;;;;;;;19.81;60.71;101087.84;4986581;28;20541;-56
2023/09/01 02:21:20;;;;;;;2.22;1.40;;;;;;;19.81;60.51;101091.38;4986106;28;20035;-56
2023/09/01 02:23:46;;;;;;;2.53;1.70;;;;;;;19.81;60.73;101094.09;4986783;28;20528;-56
2023/09/01 02:26:22;;;;;;;3.20;1.90;;;;;;;19.82;60.31;101094.94;4987047;28;21069;-56
2023/09/01 02:28:48;;;;;;;3.50;1.63;;;;;;;19.81;60.57;101090.53;4984930;28;20034;-56
2023/09/01 02:31:14;;;;;;;3.00;2.00;;;;;;;19.80;60.63;101092.41;4986350;28;20026;-56
2023/09/01 02:33:39;;;;;;;2.75;1.70;;;;;;;19.82;60.71;101092.22;4982213;28;20034;-56
2023/09/01 02:36:34;;;;;;;2.63;1.77;;;;;;;19.82;60.59;101087.69;4985762;28;20085;-56
2023/09/01 02:39:01;;;;;;;4.32;1.83;;;;;;;19.81;60.44;101087.84;4986195;28;20042;-56
2023/09/01 02:41:28;;;;;;;2.35;1.60;;;;;;;19.80;60.67;101089.72;4986884;28;20510;-56
2023/09/01 02:43:53;;;;;;;1.95;1.38;;;;;;;19.81;60.54;101090.53;4986994;28;20053;-56
2023/09/01 02:46:22;;;;;;;3.15;1.70;;;;;;;19.80;60.44;101084.31;4987244;28;20113;-56
2023/09/01 02:48:47;;;;;;;2.55;1.63;;;;;;;19.79;60.92;101071.78;4986389;28;20073;-56
2023/09/01 02:51:13;;;;;;;2.40;1.70;;;;;;;19.80;60.54;101067.22;4989679;28;20445;-56
2023/09/01 02:53:38;;;;;;;3.10;1.52;;;;;;;19.80;60.54;101072.63;4986639;28;20159;-56
2023/09/01 02:56:04;;;;;;;2.45;1.50;;;;;;;19.79;60.43;101076.34;4983038;28;20385;-56
2023/09/01 02:58:30;;;;;;;3.28;1.50;;;;;;;19.80;60.65;101078.03;4986162;28;20118;-56
2023/09/01 03:00:55;;;;;;;2.95;1.40;;;;;;;19.80;60.77;101087.00;4986065;28;20117;-56
2023/09/01 03:03:22;;;;;;;2.67;1.58;;;;;;;19.78;60.43;101083.59;4989494;28;20030;-56
2023/09/01 03:05:49;;;;;;;5.05;1.75;;;;;;;19.78;60.70;101080.91;4988015;28;20105;-56
2023/09/01 03:08:15;;;;;;;2.42;1.80;;;;;;;19.79;60.65;101070.94;4990328;28;20468;-56
2023/09/01 03:10:41;;;;;;;3.17;1.50;;;;;;;19.79;60.40;101073.63;4989205;28;20035;-56
2023/09/01 03:13:07;;;;;;;2.30;1.80;;;;;;;19.78;60.36;101075.50;4989597;28;20495;-56
2023/09/01 03:15:32;;;;;;;2.70;1.52;;;;;;;19.78;60.54;101067.41;4989416;28;20027;-55
2023/09/01 03:17:58;;;;;;;1.67;1.45;;;;;;;19.79;60.70;101070.94;4989226;28;20499;-56
2023/09/01 03:20:24;;;;;;;2.97;2.00;;;;;;;19.79;60.54;101076.34;4988761;28;20026;-56
2023/09/01 03:22:49;;;;;;;1.75;1.33;;;;;;;19.78;60.34;101071.94;4989924;28;20057;-56
2023/09/01 03:25:17;;;;;;;1.60;1.50;;;;;;;19.77;60.59;101076.50;4989434;28;20473;-56
2023/09/01 03:27:43;;;;;;;2.55;1.67;;;;;;;19.78;60.43;101072.81;4989588;28;20026;-56
2023/09/01 03:30:10;;;;;;;2.60;1.40;;;;;;;19.78;60.46;101072.81;4996521;28;20040;-56
2023/09/01 03:32:36;;;;;;;2.33;1.70;;;;;;;19.77;60.60;101078.34;4990366;28;20109;-56
2023/09/01 03:35:04;;;;;;;2.50;1.58;;;;;;;19.77;60.12;101068.38;4995323;28;20493;-56
2023/09/01 03:37:30;;;;;;;2.30;1.33;;;;;;;19.76;60.86;101061.25;4989405;28;20369;-56
2023/09/01 03:39:55;;;;;;;2.15;1.50;;;;;;;19.77;60.41;101068.38;4995810;28;20036;-56
2023/09/01 03:42:21;;;;;;;2.47;1.42;;;;;;;19.77;60.54;101068.38;4990820;28;20046;-56
2023/09/01 03:44:46;;;;;;;1.73;1.45;;;;;;;19.77;60.62;101065.69;4988566;28;20489;-56
2023/09/01 03:47:12;;;;;;;3.40;1.83;;;;;;;19.76;60.19;101055.88;4991690;28;20030;-56
2023/09/01 03:49:38;;;;;;;1.65;1.42;;;;;;;19.78;60.42;101058.41;4987475;28;20380;-56
2023/09/01 03:52:04;;;;;;;3.75;1.70;;;;;;;19.76;60.18;101066.66;4988703;28;20030;-56
2023/09/01 03:54:29;;;;;;;1.85;1.40;;;;;;;19.76;60.87;101065.81;4991337;28;20066;-56
2023/09/01 03:56:55;;;;;;;2.40;1.67;;;;;;;19.78;60.53;101059.28;4989847;28;20038;-56
2023/09/01 03:59:20;;;;;;;2.03;1.60;;;;;;;19.76;60.22;101055.88;4995329;28;20122;-56
2023/09/01 04:01:46;;;;;;;2.95;1.67;;;;;;;19.75;60.60;101054.19;4988576;28;20068;-56
2023/09/01 04:04:13;;;;;;;5.20;1.50;;;;;;;19.75;60.38;101056.03;4989923;28;20098;-56
2023/09/01 04:06:39;;;;;;;3.88;1.60;;;;;;;19.75;60.86;101050.63;4989616;28;20500;-56
2023/09/01 04:09:05;;;;;;;3.42;1.90;;;;;;;19.75;60.82;101048.78;4988475;28;20030;-56
2023/09/01 04:11:31;;;;;;;2.45;1.80;;;;;;;19.74;60.57;101047.06;4989173;28;20095;-56
2023/09/01 04:13:56;;;;;;;2.25;1.50;;;;;;;19.76;60.83;101049.63;4989211;28;20026;-56
2023/09/01 04:16:22;;;;;;;2.10;1.90;;;;;;;19.74;60.45;101044.34;4988838;28;20087;-56
2023/09/01 04:18:48;;;;;;;3.83;1.85;;;;;;;19.74;60.76;101047.06;4988506;28;20037;-56
2023/09/01 04:21:13;;;;;;;2.67;1.58;;;;;;;19.76;60.64;101049.63;4996447;28;20484;-56
2023/09/01 04:23:40;;;;;;;2.63;1.88;;;;;;;19.76;60.99;101055.03;4987538;28;20060;-56
2023/09/01 04:26:06;;;;;;;2.17;1.67;;;;;;;19.75;60.51;101046.06;4990753;28;20496;-56
2023/09/01 04:28:32;;;;;;;2.03;1.63;;;;;;;19.74;60.62;101044.34;4988179;28;20443;-56
2023/09/01 04:30:59;;;;;;;2.85;1.60;;;;;;;19.75;60.62;101043.38;4990136;28;20026;-56
2023/09/01 04:33:28;;;;;;;2.90;1.85;;;;;;;19.73;60.47;101045.38;4986813;28;20035;-56
2023/09/01 04:36:03;;;;;;;1.77;1.60;;;;;;;19.73;60.63;101040.81;4987861;28;20393;-56
2023/09/01 04:38:29;;;;;;;2.15;1.52;;;;;;;19.75;60.89;101042.53;4988512;28;20040;-57
2023/09/01 04:40:58;;;;;;;3.17;1.70;;;;;;;19.74;60.64;101041.66;4988601;28;20038;-56
2023/09/01 04:43:27;;;;;;;2.10;1.50;;;;;;;19.74;60.57;101049.75;4992420;28;20026;-56
2023/09/01 04:45:54;;;;;;;2.67;1.67;;;;;;;19.73;60.63;101053.47;4989490;28;20069;-56
2023/09/01 04:48:20;;;;;;;2.15;1.65;;;;;;;19.73;60.79;101054.31;4988686;28;20054;-56
2023/09/01 04:50:46;;;;;;;3.22;1.80;;;;;;;19.75;60.46;101053.34;4988735;28;20126;-56
2023/09/01 04:53:11;;;;;;;1.98;1.58;;;;;;;19.73;60.69;101045.38;4989102;28;20121;-56
2023/09/01 04:55:36;;;;;;;4.30;1.30;;;;;;;19.73;60.77;101046.22;4990984;28;20424;-56
2023/09/01 04:58:02;;;;;;;2.72;1.80;;;;;;;19.73;60.75;101057.03;4987957;28;20034;-56
2023/09/01 05:00:27;;;;;;;2.83;1.40;;;;;;;19.73;60.81;101056.19;4988230;28;20038;-56
2023/09/01 05:02:53;;;;;;;1.55;1.45;;;;;;;19.72;60.60;101047.25;4990993;28;20399;-56
2023/09/01 05:05:18;;;;;;;3.97;1.60;;;;;;;19.73;60.49;101048.09;4989731;28;20117;-56
2023/09/01 05:07:44;;;;;;;2.10;1.35;;;;;;;19.73;60.67;101053.47;4987448;28;20056;-56
2023/09/01 05:10:10;;;;;;;1.80;1.48;;;;;;;19.72;61.03;101049.06;4986373;28;20030;-56
2023/09/01 05:12:35;;;;;;;2.20;1.60;;;;;;;19.72;60.64;101049.06;4986368;28;20039;-56
2023/09/01 05:15:01;;;;;;;1.90;1.58;;;;;;;19.73;60.77;101050.78;4988076;28;20061;-56
2023/09/01 05:17:28;;;;;;;2.78;1.63;;;;;;;19.72;60.82;101055.34;4988457;28;20062;-56
2023/09/01 05:19:54;;;;;;;1.80;1.50;;;;;;;19.73;61.07;101054.31;4988161;28;20112;-56
2023/09/01 05:22:19;;;;;;;1.98;1.55;;;;;;;19.72;60.94;101055.34;4992623;28;20806;-56
2023/09/01 05:24:47;;;;;;;2.78;1.60;;;;;;;19.73;60.71;101058.88;4987875;28;20031;-56
2023/09/01 05:27:12;;;;;;;5.07;1.45;;;;;;;19.73;60.67;101050.78;4991891;28;20400;-56
2023/09/01 05:29:38;;;;;;;1.52;1.42;;;;;;;19.73;60.72;101054.31;4989744;28;20041;-56
2023/09/01 05:32:03;;;;;;;2.38;1.55;;;;;;;19.72;60.75;101052.66;4986288;28;20419;-57
2023/09/01 05:34:28;;;;;;;5.15;1.80;;;;;;;19.73;60.95;101053.47;4987145;28;20038;-56
2023/09/01 05:36:56;;;;;;;2.28;1.52;;;;;;;19.73;60.95;101058.88;4986385;28;20085;-56
2023/09/01 05:39:21;;;;;;;2.58;1.70;;;;;;;19.72;60.53;101060.75;4986487;28;20049;-57
2023/09/01 05:41:47;;;;;;;2.50;1.95;;;;;;;19.72;61.05;101060.75;4986997;28;20022;-57
2023/09/01 05:44:12;;;;;;;2.15;1.50;;;;;;;19.72;61.01;101065.28;4987076;28;20035;-57
2023/09/01 05:46:37;;;;;;;3.78;1.60;;;;;;;19.70;60.60;101060.03;4987470;28;20050;-57
2023/09/01 05:49:03;;;;;;;2.47;1.90;;;;;;;19.70;61.16;101069.97;4987419;28;20121;-57
2023/09/01 05:51:28;;;;;;;2.03;1.58;;;;;;;19.69;60.90;101065.56;4993909;28;20057;-58
2023/09/01 05:53:53;;;;;;;4.30;1.52;;;;;;;19.70;60.83;101061.84;4991901;28;20041;-58
2023/09/01 05:56:19;;;;;;;2.47;2.10;;;;;;;19.71;61.49;101063.56;4987891;28;20104;-58
2023/09/01 05:58:44;;;;;;;4.45;2.35;;;;;;;19.71;61.92;101058.16;4986888;28;20124;-58
2023/09/01 06:01:10;;;;;;;4.47;2.35;;;;;;;19.71;62.31;101060.88;4991472;28;20034;-58
2023/09/01 06:03:35;;;;;;;3.92;2.03;;;;;;;19.71;62.08;101056.31;4987346;28;20030;-58
2023/09/01 06:06:00;;;;;;;4.88;2.03;;;;;;;19.71;62.44;101059.00;4987006;28;20042;-58
2023/09/01 06:08:26;;;;;;;5.20;1.95;;;;;;;19.72;61.78;101057.19;4986357;28;20061;-58
2023/09/01 06:11:04;;;;;;;6.35;2.20;;;;;;;19.73;61.78;101053.47;4986116;28;20508;-58
2023/09/01 06:13:29;;;;;;;3.00;2.25;;;;;;;19.72;62.43;101059.88;4987029;28;20110;-58
2023/09/01 06:15:54;;;;;;;3.53;1.70;;;;;;;19.73;62.44;101056.19;4986411;28;20142;-58
2023/09/01 06:18:20;;;;;;;5.85;2.10;;;;;;;19.73;62.18;101056.19;4984648;28;20504;-58
2023/09/01 06:20:45;;;;;;;3.03;2.10;;;;;;;19.73;61.59;101062.44;4989312;28;20469;-57
2023/09/01 06:23:10;;;;;;;4.88;2.10;;;;;;;19.72;62.14;101054.47;4985546;28;20042;-58
2023/09/01 06:25:36;;;;;;;3.58;1.60;;;;;;;19.73;62.01;101064.28;4987650;28;20543;-58
2023/09/01 06:28:01;;;;;;;4.88;2.13;;;;;;;19.73;61.73;101064.28;4985613;28;20112;-58
2023/09/01 06:30:26;;;;;;;3.17;1.88;;;;;;;19.72;61.80;101074.25;4985093;28;20035;-57
2023/09/01 06:32:52;;;;;;;6.70;2.10;;;;;;;19.72;61.44;101070.69;4985691;28;20038;-57
2023/09/01 06:35:17;;;;;;;3.78;1.88;;;;;;;19.73;61.61;101072.41;4986082;28;20034;-58
2023/09/01 06:37:43;;;;;;;4.05;1.73;;;;;;;19.74;61.36;101071.38;4992215;28;20132;-57
2023/09/01 06:40:09;;;;;;;4.10;2.15;;;;;;;19.74;61.31;101074.09;4992402;28;20068;-58
2023/09/01 06:42:34;;;;;;;2.83;1.73;;;;;;;19.73;61.49;101072.41;5005201;28;20038;-58
2023/09/01 06:44:59;;;;;;;7.05;1.90;;;;;;;19.73;61.53;101067.84;4987197;28;20061;-57
2023/09/01 06:47:25;;;;;;;5.70;2.13;;;;;;;19.73;61.07;101073.25;4987988;28;20393;-57
2023/09/01 06:49:50;;;;;;;6.07;1.95;;;;;;;19.73;61.37;101075.09;4990350;28;20030;-58
2023/09/01 06:52:16;;;;;;;3.13;1.90;;;;;;;19.73;61.29;101077.81;4990478;28;20030;-58
2023/09/01 06:54:41;;;;;;;4.32;1.90;;;;;;;19.73;61.10;101080.50;4990430;28;20038;-57
2023/09/01 06:57:07;;;;;;;3.13;1.65;;;;;;;19.73;60.87;101073.25;4990721;28;20038;-58
2023/09/01 06:59:32;;;;;;;3.88;2.03;;;;;;;19.73;61.11;101069.69;4991376;28;20109;-57
2023/09/01 07:01:57;;;;;;;3.42;1.90;;;;;;;19.73;61.45;101077.81;4990057;28;20030;-57
2023/09/01 07:04:25;;;;;;;4.43;1.73;;;;;;;19.72;61.62;101065.28;4992146;28;20511;-57
2023/09/01 07:06:50;;;;;;;3.38;2.08;;;;;;;19.71;61.29;101068.97;4987179;28;20043;-57
2023/09/01 07:09:15;;;;;;;2.67;1.50;;;;;;;19.71;61.46;101066.28;4985727;28;20035;-57
2023/09/01 07:11:41;;;;;;;2.55;1.73;;;;;;;19.73;60.86;101067.00;4985520;28;20177;-57
2023/09/01 07:14:06;;;;;;;3.42;1.90;;;;;;;19.72;60.86;101054.47;4982709;28;20030;-57
2023/09/01 07:16:32;;;;;;;2.78;1.80;;;;;;;19.71;61.23;101050.91;4990362;28;20081;-57
2023/09/01 07:18:57;;;;;;;2.30;1.80;;;;;;;19.71;61.31;101056.31;4985584;28;20089;-57
2023/09/01 07:21:22;;;;;;;2.67;1.70;;;;;;;19.70;61.19;101049.22;4985344;28;20031;-57
2023/09/01 07:23:49;;;;;;;6.00;1.67;;;;;;;19.72;61.20;101057.19;4986424;28;20051;-57
2023/09/01 07:26:15;;;;;;;2.67;1.67;;;;;;;19.70;61.31;101046.50;4986312;28;20026;-57
2023/09/01 07:28:40;;;;;;;2.65;2.00;;;;;;;19.72;61.13;101058.03;4987263;28;20464;-57
2023/09/01 07:31:12;;;;;;;4.13;1.92;;;;;;;19.71;61.03;101058.16;4987767;28;20022;-57
2023/09/01 07:33:41;;;;;;;2.40;2.05;;;;;;;19.70;61.50;101051.91;4987992;28;20117;-58
2023/09/01 07:36:09;;;;;;;2.28;1.63;;;;;;;19.71;60.99;101050.06;4988281;28;20038;-58
2023/09/01 07:38:35;;;;;;;5.03;1.90;;;;;;;19.70;61.13;101056.44;4988373;28;20520;-58
2023/09/01 07:41:00;;;;;;;2.90;2.03;;;;;;;19.70;60.75;101048.34;4981381;28;20114;-55
2023/09/01 07:43:25;;;;;;;3.15;1.77;;;;;;;19.71;61.10;101041.94;4986280;28;20481;-55
2023/09/01 07:45:50;;;;;;;3.17;1.90;;;;;;;19.71;61.02;101047.34;4987806;28;20084;-55
2023/09/01 07:48:16;;;;;;;5.18;2.15;;;;;;;19.71;61.68;101047.34;4980183;28;20496;-55
2023/09/01 07:50:41;;;;;;;3.70;1.98;;;;;;;19.71;61.43;101050.06;4986839;28;20030;-55
2023/09/01 07:53:07;;;;;;;3.53;1.50;;;;;;;19.72;61.30;101051.78;4992264;28;20080;-56
2023/09/01 07:55:32;;;;;;;2.60;1.80;;;;;;;19.71;61.14;101050.91;4993074;28;20041;-55
2023/09/01 07:57:58;;;;;;;4.55;1.83;;;;;;;19.72;61.20;101051.78;4987937;28;20038;-55
2023/09/01 08:00:24;;;;;;;2.90;1.63;;;;;;;19.71;61.49;101053.59;4987535;28;20042;-56
2023/09/01 08:02:49;;;;;;;2.15;1.63;;;;;;;19.72;61.24;101062.56;4988088;28;20046;-56
2023/09/01 08:05:15;;;;;;;2.03;1.52;;;;;;;19.72;61.17;101062.56;4991286;28;20113;-56
2023/09/01 08:07:40;;;;;;;2.53;1.63;;;;;;;19.71;61.10;101064.41;4986986;28;20434;-56
2023/09/01 08:10:09;;;;;;;1.60;1.48;;;;;;;19.73;61.15;101069.69;4997795;28;20034;-55
2023/09/01 08:12:34;;;;;;;2.40;2.00;;;;;;;19.72;61.63;101070.69;4998824;28;20035;-56
2023/09/01 08:15:00;;;;;;;2.35;1.95;;;;;;;19.72;61.47;101073.38;4988844;28;20042;-55
2023/09/01 08:17:25;;;;;;;3.33;1.80;;;;;;;19.72;61.42;101076.09;4988326;28;20420;-56
2023/09/01 08:19:51;;;;;;;4.85;1.85;;;;;;;19.71;61.17;101079.78;4992313;28;20042;-56
2023/09/01 08:22:17;;;;;;;2.30;1.60;;;;;;;19.72;61.40;101081.50;4991034;28;20034;-55
2023/09/01 08:24:43;;;;;;;6.97;1.83;;;;;;;19.72;61.33;101089.59;4987681;28;20464;-56
2023/09/01 08:27:09;;;;;;;2.15;1.95;;;;;;;19.71;61.44;101087.88;4987458;28;20034;-56
2023/09/01 08:29:34;;;;;;;2.72;1.65;;;;;;;19.70;61.75;101089.75;4995282;28;20402;-55
2023/09/01 08:32:00;;;;;;;2.45;1.63;;;;;;;19.69;61.20;101082.63;4988144;28;20065;-55
2023/09/01 08:34:27;;;;;;;2.55;1.58;;;;;;;19.70;61.51;101088.88;4994450;28;20038;-56
2023/09/01 08:36:52;;;;;;;4.43;1.70;;;;;;;19.70;60.97;101095.13;4989623;28;20034;-56
2023/09/01 08:39:18;;;;;;;2.90;1.85;;;;;;;19.70;61.32;101088.88;4987800;28;20035;-56
2023/09/01 08:41:44;;;;;;;1.85;1.63;;;;;;;19.70;61.38;101095.13;4987962;28;20124;-55
2023/09/01 08:44:11;;;;;;;2.78;1.88;;;;;;;19.71;61.67;101090.59;4997464;28;20125;-55
2023/09/01 08:46:37;;;;;;;1.75;1.58;;;;;;;19.70;61.38;101099.66;4988749;28;20038;-56
2023/09/01 08:49:04;;;;;;;3.75;1.80;;;;;;;19.70;61.35;101100.53;4993218;28;20041;-56
2023/09/01 08:51:30;;;;;;;2.35;1.45;;;;;;;19.69;61.68;101103.41;4988117;28;20050;-56
2023/09/01 08:53:56;;;;;;;3.50;1.67;;;;;;;19.70;61.46;101111.34;4987586;28;20031;-56
2023/09/01 08:56:21;;;;;;;2.25;1.50;;;;;;;19.70;61.41;101110.47;4986615;28;20046;-56
2023/09/01 08:58:47;;;;;;;2.20;1.50;;;;;;;19.69;61.79;101109.63;4995237;28;20026;-56
2023/09/01 09:01:14;;;;;;;3.22;1.70;;;;;;;19.69;61.43;101109.63;4989154;28;20040;-58
2023/09/01 09:03:40;;;;;;;2.10;1.48;;;;;;;19.70;61.23;101115.88;4990758;28;20041;-58
2023/09/01 09:06:05;;;;;;;3.08;1.95;;;;;;;19.69;61.60;101112.34;4985655;28;20460;-58
2023/09/01 09:08:32;;;;;;;2.50;1.80;;;;;;;19.69;61.56;101109.63;4995520;28;20044;-58
2023/09/01 09:10:57;;;;;;;1.50;1.40;;;;;;;19.68;61.50;101113.31;4994169;28;20037;-58
2023/09/01 09:13:27;;;;;;;1.90;1.40;;;;;;;19.68;61.77;101113.31;4988034;28;20396;-58
2023/09/01 09:16:15;;;;;;;2.40;1.60;;;;;;;19.69;61.42;101111.50;4994222;28;20034;-55
2023/09/01 09:18:43;;;;;;;2.40;1.73;;;;;;;19.68;61.65;101110.63;4986630;28;20085;-56
2023/09/01 09:21:31;;;;;;;2.17;1.70;;;;;;;19.70;61.56;101108.66;4988161;28;20034;-56
2023/09/01 09:23:59;;;;;;;2.47;1.55;;;;;;;19.68;61.25;101112.47;4988582;28;20034;-56
2023/09/01 09:26:29;;;;;;;2.83;2.15;;;;;;;19.68;61.97;101117.88;4988204;28;20370;-56
2023/09/01 09:29:01;;;;;;;2.88;1.67;;;;;;;19.69;61.39;101119.59;4985758;28;20049;-56
2023/09/01 09:31:33;;;;;;;3.15;2.00;;;;;;;19.69;61.57;101125.00;4986452;28;20070;-56
2023/09/01 09:34:11;;;;;;;3.55;2.00;;;;;;;19.69;61.49;101122.31;4988642;28;20088;-56
2023/09/01 09:36:38;;;;;;;2.10;1.48;;;;;;;19.68;61.70;101126.00;4986388;28;20034;-56
2023/09/01 09:39:06;;;;;;;1.58;1.48;;;;;;;19.68;61.76;101128.69;4987738;28;20114;-56
2023/09/01 09:41:45;;;;;;;2.28;1.52;;;;;;;19.69;61.55;101125.00;4987645;28;20250;-56
2023/09/01 09:44:10;;;;;;;3.83;1.85;;;;;;;19.68;61.90;101129.53;4992117;28;20428;-56
2023/09/01 09:46:44;;;;;;;3.22;1.98;;;;;;;19.69;61.46;101127.72;4993302;28;20133;-56
2023/09/01 09:49:12;;;;;;;1.27;1.15;;;;;;;19.69;61.82;101127.72;4993156;28;20041;-55
2023/09/01 09:51:39;;;;;;;4.15;1.90;;;;;;;19.68;61.90;101128.69;4999616;28;20197;-55
2023/09/01 09:54:09;;;;;;;1.98;1.50;;;;;;;19.68;61.79;101134.09;4985959;28;20030;-56
2023/09/01 09:56:38;;;;;;;3.17;1.70;;;;;;;19.68;62.03;101134.09;4994050;28;20503;-56
2023/09/01 09:59:07;;;;;;;2.22;1.58;;;;;;;19.68;61.83;101132.22;4985254;28;20054;-56
2023/09/01 10:01:39;;;;;;;1.50;1.35;;;;;;;19.69;61.96;101122.31;4986689;28;20046;-56
2023/09/01 10:04:05;;;;;;;5.22;2.00;;;;;;;19.68;62.14;101132.22;4986241;28;20026;-56
2023/09/01 10:06:32;;;;;;;2.15;1.70;;;;;;;19.67;61.91;101124.31;4992880;28;20100;-56
2023/09/01 10:08:59;;;;;;;2.53;1.70;;;;;;;19.68;62.05;101126.84;4986124;28;20478;-56
2023/09/01 10:11:28;;;;;;;2.33;1.70;;;;;;;19.67;61.99;101122.44;4991672;28;20027;-55
2023/09/01 10:13:55;;;;;;;2.58;1.73;;;;;;;19.69;62.13;101125.00;4984210;28;20089;-56
2023/09/01 10:16:22;;;;;;;1.40;1.30;;;;;;;19.68;61.82;101115.19;4984004;28;20057;-56
2023/09/01 10:18:48;;;;;;;2.15;1.70;;;;;;;19.68;61.78;101117.88;4988429;28;20041;-56
2023/09/01 10:21:18;;;;;;;2.08;1.50;;;;;;;19.68;62.38;101113.31;4990373;28;20464;-56
2023/09/01 10:23:44;;;;;;;2.38;1.50;;;;;;;19.68;62.11;101113.31;4987404;28;20049;-56
2023/09/01 10:26:13;;;;;;;1.73;1.58;;;;;;;19.68;62.21;101117.88;4987538;28;20110;-55
2023/09/01 10:29:03;;;;;;;1.60;1.40;;;;;;;19.70;61.82;101116.75;4986952;28;20061;-56
2023/09/01 10:31:33;;;;;;;2.05;1.67;;;;;;;19.69;62.12;101123.16;4986620;28;20072;-56
2023/09/01 10:34:05;;;;;;;2.05;1.63;;;;;;;19.69;62.35;101125.00;4987575;28;20034;-56
2023/09/01 10:36:31;;;;;;;1.60;1.40;;;;;;;19.69;61.93;101130.41;4987090;28;20030;-56
2023/09/01 10:39:23;;;;;;;3.28;1.80;;;;;;;19.71;62.20;101125.69;4987044;28;20033;-56
2023/09/01 10:42:02;;;;;;;3.30;1.58;;;;;;;19.69;62.33;101125.84;4989862;28;20057;-56
2023/09/01 10:44:40;;;;;;;2.58;1.55;;;;;;;19.70;62.10;101126.69;4985392;28;20038;-56
2023/09/01 10:47:30;;;;;;;2.08;1.73;;;;;;;19.72;62.36;101130.13;4985947;28;20045;-56
2023/09/01 10:49:56;;;;;;;1.65;1.40;;;;;;;19.69;62.66;101128.53;4991879;28;20502;-56
2023/09/01 10:52:22;;;;;;;2.28;1.60;;;;;;;19.70;62.52;101126.69;4991934;28;20121;-56
2023/09/01 10:55:05;;;;;;;2.20;1.38;;;;;;;19.71;62.00;101134.66;4986929;28;20520;-56
2023/09/01 10:57:41;;;;;;;1.73;1.50;;;;;;;19.72;61.88;101138.22;4986218;28;20350;-56
2023/09/01 11:00:28;;;;;;;5.43;1.92;;;;;;;19.74;62.16;101144.31;4995219;28;20030;-56
2023/09/01 11:03:45;;;;;;;2.10;1.42;;;;;;;19.74;62.76;101149.72;4986491;28;20026;-58
2023/09/01 11:06:11;;;;;;;1.70;1.60;;;;;;;19.75;62.13;101139.78;4998944;28;20061;-58
2023/09/01 11:08:36;;;;;;;1.40;1.30;;;;;;;19.73;62.82;101135.38;4990775;28;20039;-58
2023/09/01 11:11:09;;;;;;;1.65;1.48;;;;;;;19.75;62.23;101139.78;4985576;28;20184;-58
2023/09/01 11:13:35;;;;;;;1.52;1.33;;;;;;;19.75;62.83;101135.22;4990048;28;20038;-58
2023/09/01 11:16:08;;;;;;;1.85;1.35;;;;;;;19.74;62.77;101130.81;4988900;28;20089;-58
2023/09/01 11:18:33;;;;;;;1.58;1.48;;;;;;;19.75;62.68;101129.81;4985175;28;20085;-58
2023/09/01 11:21:00;;;;;;;2.40;1.35;;;;;;;19.77;62.46;101135.94;4984368;28;20030;-58
2023/09/01 11:23:27;;;;;;;1.40;1.30;;;;;;;19.75;62.87;101132.53;4991540;28;20168;-58
2023/09/01 11:25:57;;;;;;;1.67;1.55;;;;;;;19.77;62.48;101133.22;4991705;28;20084;-58